sensor_id;sensor_type;location;lat;lon;timestamp;temperature;humidity
70706;DHT22;59320;52.316;10.870;2023-06-26T00:00:11;20.90;98.00
70706;DHT22;59320;52.316;10.870;2023-06-26T00:02:39;20.90;98.20
70706;DHT22;59320;52.316;10.870;2023-06-26T00:05:07;20.90;98.10
70706;DHT22;59320;52.316;10.870;2023-06-26T00:07:34;20.80;98.20
70706;DHT22;59320;52.316;10.870;2023-06-26T00:10:02;20.80;98.20
70706;DHT22;59320;52.316;10.870;2023-06-26T00:12:30;20.80;98.30
70706;DHT22;59320;52.316;10.870;2023-06-26T00:14:58;20.70;98.30
70706;DHT22;59320;52.316;10.870;2023-06-26T00:17:25;20.70;98.40
70706;DHT22;59320;52.316;10.870;2023-06-26T00:19:53;20.70;98.50
70706;DHT22;59320;52.316;10.870;2023-06-26T00:22:21;20.60;98.60
70706;DHT22;59320;52.316;10.870;2023-06-26T00:24:48;20.60;98.80
70706;DHT22;59320;52.316;10.870;2023-06-26T00:27:15;20.60;99.00
70706;DHT22;59320;52.316;10.870;2023-06-26T00:29:43;20.60;99.10
70706;DHT22;59320;52.316;10.870;2023-06-26T00:32:12;20.50;99.10
70706;DHT22;59320;52.316;10.870;2023-06-26T00:34:39;20.50;99.20
70706;DHT22;59320;52.316;10.870;2023-06-26T00:37:08;20.50;99.20
70706;DHT22;59320;52.316;10.870;2023-06-26T00:39:35;20.50;99.20
70706;DHT22;59320;52.316;10.870;2023-06-26T00:42:02;20.50;99.30
70706;DHT22;59320;52.316;10.870;2023-06-26T00:44:29;20.50;99.30
70706;DHT22;59320;52.316;10.870;2023-06-26T00:46:56;20.50;99.70
70706;DHT22;59320;52.316;10.870;2023-06-26T00:49:25;20.50;99.50
70706;DHT22;59320;52.316;10.870;2023-06-26T00:51:53;20.50;99.60
70706;DHT22;59320;52.316;10.870;2023-06-26T00:54:20;20.50;99.60
70706;DHT22;59320;52.316;10.870;2023-06-26T00:56:48;20.50;99.90
70706;DHT22;59320;52.316;10.870;2023-06-26T00:59:15;20.50;99.70
70706;DHT22;59320;52.316;10.870;2023-06-26T01:01:42;20.50;99.80
70706;DHT22;59320;52.316;10.870;2023-06-26T01:04:10;20.40;99.90
70706;DHT22;59320;52.316;10.870;2023-06-26T01:06:46;20.40;99.90
70706;DHT22;59320;52.316;10.870;2023-06-26T01:09:16;20.40;99.90
70706;DHT22;59320;52.316;10.870;2023-06-26T01:11:44;20.40;99.90
70706;DHT22;59320;52.316;10.870;2023-06-26T01:14:12;20.40;99.90
70706;DHT22;59320;52.316;10.870;2023-06-26T01:16:39;20.40;99.90
70706;DHT22;59320;52.316;10.870;2023-06-26T01:19:11;20.40;99.90
70706;DHT22;59320;52.316;10.870;2023-06-26T01:21:43;20.30;99.90
70706;DHT22;59320;52.316;10.870;2023-06-26T01:24:17;20.30;99.90
70706;DHT22;59320;52.316;10.870;2023-06-26T01:26:51;20.30;99.90
70706;DHT22;59320;52.316;10.870;2023-06-26T01:29:18;20.30;99.90
70706;DHT22;59320;52.316;10.870;2023-06-26T01:31:47;20.30;99.90
70706;DHT22;59320;52.316;10.870;2023-06-26T01:34:15;20.30;99.90
70706;DHT22;59320;52.316;10.870;2023-06-26T01:36:44;20.30;99.90
70706;DHT22;59320;52.316;10.870;2023-06-26T01:39:12;20.30;99.90
70706;DHT22;59320;52.316;10.870;2023-06-26T01:41:39;20.30;99.90
70706;DHT22;59320;52.316;10.870;2023-06-26T01:44:18;20.20;99.90
70706;DHT22;59320;52.316;10.870;2023-06-26T01:46:57;20.20;99.90
70706;DHT22;59320;52.316;10.870;2023-06-26T01:49:35;20.20;99.90
70706;DHT22;59320;52.316;10.870;2023-06-26T01:52:08;20.20;99.90
70706;DHT22;59320;52.316;10.870;2023-06-26T01:54:44;20.20;99.90
70706;DHT22;59320;52.316;10.870;2023-06-26T01:57:14;20.20;99.90
70706;DHT22;59320;52.316;10.870;2023-06-26T01:59:46;20.10;99.90
70706;DHT22;59320;52.316;10.870;2023-06-26T02:02:14;20.10;99.90
70706;DHT22;59320;52.316;10.870;2023-06-26T02:04:41;20.10;99.90
70706;DHT22;59320;52.316;10.870;2023-06-26T02:07:08;20.10;99.90
70706;DHT22;59320;52.316;10.870;2023-06-26T02:09:36;20.10;99.90
70706;DHT22;59320;52.316;10.870;2023-06-26T02:12:03;20.00;99.90
70706;DHT22;59320;52.316;10.870;2023-06-26T02:14:31;20.00;99.90
70706;DHT22;59320;52.316;10.870;2023-06-26T02:17:00;20.00;99.90
70706;DHT22;59320;52.316;10.870;2023-06-26T02:19:27;20.00;99.90
70706;DHT22;59320;52.316;10.870;2023-06-26T02:21:54;20.00;99.90
70706;DHT22;59320;52.316;10.870;2023-06-26T02:24:23;20.00;99.90
70706;DHT22;59320;52.316;10.870;2023-06-26T02:26:50;19.90;99.90
70706;DHT22;59320;52.316;10.870;2023-06-26T02:29:17;19.90;99.90
70706;DHT22;59320;52.316;10.870;2023-06-26T02:31:44;19.90;99.90
70706;DHT22;59320;52.316;10.870;2023-06-26T02:34:13;19.90;99.90
70706;DHT22;59320;52.316;10.870;2023-06-26T02:36:40;19.90;99.90
70706;DHT22;59320;52.316;10.870;2023-06-26T02:39:07;19.90;99.90
70706;DHT22;59320;52.316;10.870;2023-06-26T02:41:34;19.90;99.90
70706;DHT22;59320;52.316;10.870;2023-06-26T02:44:01;19.90;99.90
70706;DHT22;59320;52.316;10.870;2023-06-26T02:46:29;19.90;99.90
70706;DHT22;59320;52.316;10.870;2023-06-26T02:48:56;19.90;99.90
70706;DHT22;59320;52.316;10.870;2023-06-26T02:51:25;19.90;99.90
70706;DHT22;59320;52.316;10.870;2023-06-26T02:53:54;19.90;99.90
70706;DHT22;59320;52.316;10.870;2023-06-26T02:56:21;19.80;99.90
70706;DHT22;59320;52.316;10.870;2023-06-26T02:58:48;19.80;99.90
70706;DHT22;59320;52.316;10.870;2023-06-26T03:01:15;19.80;99.90
70706;DHT22;59320;52.316;10.870;2023-06-26T03:03:42;19.80;99.90
70706;DHT22;59320;52.316;10.870;2023-06-26T03:06:14;19.80;99.90
70706;DHT22;59320;52.316;10.870;2023-06-26T03:08:43;19.90;99.90
70706;DHT22;59320;52.316;10.870;2023-06-26T03:11:11;19.80;99.90
70706;DHT22;59320;52.316;10.870;2023-06-26T03:13:39;19.80;99.90
70706;DHT22;59320;52.316;10.870;2023-06-26T03:16:06;19.80;99.90
70706;DHT22;59320;52.316;10.870;2023-06-26T03:18:33;19.70;99.90
70706;DHT22;59320;52.316;10.870;2023-06-26T03:21:00;19.80;99.90
70706;DHT22;59320;52.316;10.870;2023-06-26T03:23:28;19.80;99.90
70706;DHT22;59320;52.316;10.870;2023-06-26T03:25:56;19.80;99.90
70706;DHT22;59320;52.316;10.870;2023-06-26T03:28:26;19.80;99.90
70706;DHT22;59320;52.316;10.870;2023-06-26T03:30:53;19.80;99.90
70706;DHT22;59320;52.316;10.870;2023-06-26T03:33:20;19.80;99.90
70706;DHT22;59320;52.316;10.870;2023-06-26T03:35:47;19.80;99.90
70706;DHT22;59320;52.316;10.870;2023-06-26T03:38:15;19.90;99.90
70706;DHT22;59320;52.316;10.870;2023-06-26T03:40:44;19.90;99.90
70706;DHT22;59320;52.316;10.870;2023-06-26T03:43:12;19.90;99.90
70706;DHT22;59320;52.316;10.870;2023-06-26T03:45:48;19.90;99.90
70706;DHT22;59320;52.316;10.870;2023-06-26T03:48:15;19.90;99.90
70706;DHT22;59320;52.316;10.870;2023-06-26T03:50:42;19.90;99.90
70706;DHT22;59320;52.316;10.870;2023-06-26T03:53:09;19.90;99.90
70706;DHT22;59320;52.316;10.870;2023-06-26T03:55:40;20.00;99.90
70706;DHT22;59320;52.316;10.870;2023-06-26T03:58:07;20.00;99.90
70706;DHT22;59320;52.316;10.870;2023-06-26T04:00:35;20.10;99.90
70706;DHT22;59320;52.316;10.870;2023-06-26T04:03:02;20.10;99.90
70706;DHT22;59320;52.316;10.870;2023-06-26T04:05:30;20.20;99.90
70706;DHT22;59320;52.316;10.870;2023-06-26T04:07:57;20.10;99.90
70706;DHT22;59320;52.316;10.870;2023-06-26T04:10:25;20.20;99.90
70706;DHT22;59320;52.316;10.870;2023-06-26T04:12:52;20.20;99.90
70706;DHT22;59320;52.316;10.870;2023-06-26T04:15:19;20.30;99.90
70706;DHT22;59320;52.316;10.870;2023-06-26T04:17:48;20.30;99.90
70706;DHT22;59320;52.316;10.870;2023-06-26T04:20:15;20.30;99.90
70706;DHT22;59320;52.316;10.870;2023-06-26T04:22:42;20.30;99.90
70706;DHT22;59320;52.316;10.870;2023-06-26T04:25:09;20.30;99.90
70706;DHT22;59320;52.316;10.870;2023-06-26T04:27:37;20.40;99.90
70706;DHT22;59320;52.316;10.870;2023-06-26T04:30:05;20.40;99.90
70706;DHT22;59320;52.316;10.870;2023-06-26T04:32:32;20.40;99.90
70706;DHT22;59320;52.316;10.870;2023-06-26T04:35:01;20.50;99.90
70706;DHT22;59320;52.316;10.870;2023-06-26T04:37:28;20.50;99.90
70706;DHT22;59320;52.316;10.870;2023-06-26T04:39:55;20.60;99.90
70706;DHT22;59320;52.316;10.870;2023-06-26T04:42:22;20.60;99.90
70706;DHT22;59320;52.316;10.870;2023-06-26T04:44:49;20.60;99.90
70706;DHT22;59320;52.316;10.870;2023-06-26T04:47:16;20.70;99.90
70706;DHT22;59320;52.316;10.870;2023-06-26T04:49:43;20.70;99.90
70706;DHT22;59320;52.316;10.870;2023-06-26T04:52:13;20.80;99.90
70706;DHT22;59320;52.316;10.870;2023-06-26T04:54:40;20.80;99.90
70706;DHT22;59320;52.316;10.870;2023-06-26T04:57:07;20.90;99.90
70706;DHT22;59320;52.316;10.870;2023-06-26T04:59:35;21.00;99.90
70706;DHT22;59320;52.316;10.870;2023-06-26T05:02:02;21.00;99.90
70706;DHT22;59320;52.316;10.870;2023-06-26T05:04:30;21.10;99.90
70706;DHT22;59320;52.316;10.870;2023-06-26T05:06:57;21.20;99.90
70706;DHT22;59320;52.316;10.870;2023-06-26T05:09:26;21.20;99.90
70706;DHT22;59320;52.316;10.870;2023-06-26T05:11:53;21.30;99.90
70706;DHT22;59320;52.316;10.870;2023-06-26T05:14:20;21.40;99.90
70706;DHT22;59320;52.316;10.870;2023-06-26T05:16:47;21.40;99.90
70706;DHT22;59320;52.316;10.870;2023-06-26T05:19:14;21.50;99.90
70706;DHT22;59320;52.316;10.870;2023-06-26T05:21:41;21.50;99.90
70706;DHT22;59320;52.316;10.870;2023-06-26T05:24:09;21.70;99.90
70706;DHT22;59320;52.316;10.870;2023-06-26T05:26:38;21.70;99.90
70706;DHT22;59320;52.316;10.870;2023-06-26T05:29:06;21.80;99.90
70706;DHT22;59320;52.316;10.870;2023-06-26T05:31:33;21.90;99.90
70706;DHT22;59320;52.316;10.870;2023-06-26T05:34:03;22.00;99.90
70706;DHT22;59320;52.316;10.870;2023-06-26T05:36:31;22.10;99.90
70706;DHT22;59320;52.316;10.870;2023-06-26T05:39:00;22.20;99.90
70706;DHT22;59320;52.316;10.870;2023-06-26T05:41:28;22.30;99.90
70706;DHT22;59320;52.316;10.870;2023-06-26T05:43:57;22.40;99.90
70706;DHT22;59320;52.316;10.870;2023-06-26T05:46:24;22.50;99.90
70706;DHT22;59320;52.316;10.870;2023-06-26T05:48:51;22.60;99.90
70706;DHT22;59320;52.316;10.870;2023-06-26T05:51:18;22.80;99.60
70706;DHT22;59320;52.316;10.870;2023-06-26T05:53:46;22.90;99.50
70706;DHT22;59320;52.316;10.870;2023-06-26T05:56:13;23.10;99.30
70706;DHT22;59320;52.316;10.870;2023-06-26T05:58:41;23.20;98.50
70706;DHT22;59320;52.316;10.870;2023-06-26T06:01:10;23.20;98.40
70706;DHT22;59320;52.316;10.870;2023-06-26T06:03:38;23.20;98.40
70706;DHT22;59320;52.316;10.870;2023-06-26T06:06:05;23.30;98.20
70706;DHT22;59320;52.316;10.870;2023-06-26T06:08:32;23.30;98.20
70706;DHT22;59320;52.316;10.870;2023-06-26T06:11:00;23.40;98.30
70706;DHT22;59320;52.316;10.870;2023-06-26T06:13:27;23.40;98.30
70706;DHT22;59320;52.316;10.870;2023-06-26T06:15:54;23.50;98.30
70706;DHT22;59320;52.316;10.870;2023-06-26T06:18:23;23.70;98.20
70706;DHT22;59320;52.316;10.870;2023-06-26T06:20:50;23.90;98.00
70706;DHT22;59320;52.316;10.870;2023-06-26T06:23:17;24.20;97.80
70706;DHT22;59320;52.316;10.870;2023-06-26T06:25:44;24.50;97.50
70706;DHT22;59320;52.316;10.870;2023-06-26T06:28:11;24.80;97.10
70706;DHT22;59320;52.316;10.870;2023-06-26T06:30:41;24.90;96.80
70706;DHT22;59320;52.316;10.870;2023-06-26T06:33:08;25.20;96.50
70706;DHT22;59320;52.316;10.870;2023-06-26T06:35:37;25.40;96.40
70706;DHT22;59320;52.316;10.870;2023-06-26T06:38:04;25.50;96.10
70706;DHT22;59320;52.316;10.870;2023-06-26T06:40:31;25.70;95.90
70706;DHT22;59320;52.316;10.870;2023-06-26T06:42:58;25.90;95.60
70706;DHT22;59320;52.316;10.870;2023-06-26T06:45:25;26.20;95.30
70706;DHT22;59320;52.316;10.870;2023-06-26T06:47:52;26.40;94.90
70706;DHT22;59320;52.316;10.870;2023-06-26T06:50:19;26.60;94.70
70706;DHT22;59320;52.316;10.870;2023-06-26T06:52:47;26.80;94.40
70706;DHT22;59320;52.316;10.870;2023-06-26T06:55:14;27.00;94.20
70706;DHT22;59320;52.316;10.870;2023-06-26T06:57:41;27.20;93.90
70706;DHT22;59320;52.316;10.870;2023-06-26T07:00:10;27.40;93.50
70706;DHT22;59320;52.316;10.870;2023-06-26T07:02:42;27.60;93.10
70706;DHT22;59320;52.316;10.870;2023-06-26T07:05:10;27.70;92.20
70706;DHT22;59320;52.316;10.870;2023-06-26T07:07:37;27.90;92.00
70706;DHT22;59320;52.316;10.870;2023-06-26T07:10:10;28.10;91.80
70706;DHT22;59320;52.316;10.870;2023-06-26T07:12:38;28.30;91.60
70706;DHT22;59320;52.316;10.870;2023-06-26T07:15:06;28.50;91.60
70706;DHT22;59320;52.316;10.870;2023-06-26T07:17:34;28.70;91.50
70706;DHT22;59320;52.316;10.870;2023-06-26T07:20:02;28.90;91.10
70706;DHT22;59320;52.316;10.870;2023-06-26T07:22:32;29.20;91.20
70706;DHT22;59320;52.316;10.870;2023-06-26T07:24:59;29.40;90.60
70706;DHT22;59320;52.316;10.870;2023-06-26T07:27:27;29.70;89.70
70706;DHT22;59320;52.316;10.870;2023-06-26T07:29:54;30.00;90.00
70706;DHT22;59320;52.316;10.870;2023-06-26T07:32:21;30.20;88.70
70706;DHT22;59320;52.316;10.870;2023-06-26T07:34:48;30.40;88.30
70706;DHT22;59320;52.316;10.870;2023-06-26T07:37:15;30.50;87.90
70706;DHT22;59320;52.316;10.870;2023-06-26T07:39:42;30.50;86.90
70706;DHT22;59320;52.316;10.870;2023-06-26T07:42:09;30.60;86.60
70706;DHT22;59320;52.316;10.870;2023-06-26T07:44:38;30.80;86.50
70706;DHT22;59320;52.316;10.870;2023-06-26T07:47:05;31.00;85.60
70706;DHT22;59320;52.316;10.870;2023-06-26T07:49:32;31.10;84.70
70706;DHT22;59320;52.316;10.870;2023-06-26T07:51:59;31.10;83.00
70706;DHT22;59320;52.316;10.870;2023-06-26T07:54:26;30.90;79.10
70706;DHT22;59320;52.316;10.870;2023-06-26T07:56:54;30.70;78.40
70706;DHT22;59320;52.316;10.870;2023-06-26T07:59:22;30.80;76.70
70706;DHT22;59320;52.316;10.870;2023-06-26T08:01:52;30.70;76.00
70706;DHT22;59320;52.316;10.870;2023-06-26T08:04:20;30.80;75.40
70706;DHT22;59320;52.316;10.870;2023-06-26T08:06:48;30.80;74.00
70706;DHT22;59320;52.316;10.870;2023-06-26T08:09:15;30.80;72.50
70706;DHT22;59320;52.316;10.870;2023-06-26T08:11:42;30.90;72.60
70706;DHT22;59320;52.316;10.870;2023-06-26T08:14:09;31.20;73.50
70706;DHT22;59320;52.316;10.870;2023-06-26T08:16:37;31.70;70.70
70706;DHT22;59320;52.316;10.870;2023-06-26T08:19:06;31.90;70.10
70706;DHT22;59320;52.316;10.870;2023-06-26T08:21:33;32.00;68.70
70706;DHT22;59320;52.316;10.870;2023-06-26T08:24:00;32.00;69.00
70706;DHT22;59320;52.316;10.870;2023-06-26T08:26:27;32.10;69.90
70706;DHT22;59320;52.316;10.870;2023-06-26T08:28:54;32.20;67.60
70706;DHT22;59320;52.316;10.870;2023-06-26T08:31:21;32.20;66.30
70706;DHT22;59320;52.316;10.870;2023-06-26T08:33:48;32.20;65.70
70706;DHT22;59320;52.316;10.870;2023-06-26T08:36:16;32.00;64.80
70706;DHT22;59320;52.316;10.870;2023-06-26T08:38:43;32.00;65.20
70706;DHT22;59320;52.316;10.870;2023-06-26T08:41:11;32.20;65.20
70706;DHT22;59320;52.316;10.870;2023-06-26T08:43:38;32.40;62.90
70706;DHT22;59320;52.316;10.870;2023-06-26T08:46:05;32.20;62.40
70706;DHT22;59320;52.316;10.870;2023-06-26T08:48:34;32.20;60.90
70706;DHT22;59320;52.316;10.870;2023-06-26T08:51:08;32.20;62.00
70706;DHT22;59320;52.316;10.870;2023-06-26T08:53:42;32.30;60.50
70706;DHT22;59320;52.316;10.870;2023-06-26T08:56:12;32.30;60.00
70706;DHT22;59320;52.316;10.870;2023-06-26T08:58:41;31.90;60.70
70706;DHT22;59320;52.316;10.870;2023-06-26T09:01:09;31.70;61.60
70706;DHT22;59320;52.316;10.870;2023-06-26T09:03:37;31.70;61.90
70706;DHT22;59320;52.316;10.870;2023-06-26T09:06:04;31.40;62.00
70706;DHT22;59320;52.316;10.870;2023-06-26T09:08:31;31.10;62.80
70706;DHT22;59320;52.316;10.870;2023-06-26T09:11:00;30.90;64.00
70706;DHT22;59320;52.316;10.870;2023-06-26T09:13:28;30.80;64.40
70706;DHT22;59320;52.316;10.870;2023-06-26T09:15:55;30.90;64.50
70706;DHT22;59320;52.316;10.870;2023-06-26T09:18:22;30.80;65.30
70706;DHT22;59320;52.316;10.870;2023-06-26T09:20:50;30.70;64.60
70706;DHT22;59320;52.316;10.870;2023-06-26T09:23:17;30.70;65.10
70706;DHT22;59320;52.316;10.870;2023-06-26T09:25:47;30.50;64.40
70706;DHT22;59320;52.316;10.870;2023-06-26T09:28:15;30.50;65.10
70706;DHT22;59320;52.316;10.870;2023-06-26T09:30:43;30.50;65.30
70706;DHT22;59320;52.316;10.870;2023-06-26T09:33:14;30.60;65.50
70706;DHT22;59320;52.316;10.870;2023-06-26T09:35:41;30.80;65.50
70706;DHT22;59320;52.316;10.870;2023-06-26T09:38:08;31.00;64.30
70706;DHT22;59320;52.316;10.870;2023-06-26T09:40:35;31.00;62.90
70706;DHT22;59320;52.316;10.870;2023-06-26T09:43:04;31.00;62.30
70706;DHT22;59320;52.316;10.870;2023-06-26T09:45:33;31.10;63.30
70706;DHT22;59320;52.316;10.870;2023-06-26T09:48:02;31.00;61.70
70706;DHT22;59320;52.316;10.870;2023-06-26T09:50:29;31.00;62.80
70706;DHT22;59320;52.316;10.870;2023-06-26T09:52:58;31.10;63.00
70706;DHT22;59320;52.316;10.870;2023-06-26T09:55:26;31.00;63.00
70706;DHT22;59320;52.316;10.870;2023-06-26T09:57:55;30.90;61.20
70706;DHT22;59320;52.316;10.870;2023-06-26T10:00:23;30.90;62.40
70706;DHT22;59320;52.316;10.870;2023-06-26T10:02:51;31.00;61.40
70706;DHT22;59320;52.316;10.870;2023-06-26T10:05:18;30.80;61.70
70706;DHT22;59320;52.316;10.870;2023-06-26T10:07:46;30.80;62.30
70706;DHT22;59320;52.316;10.870;2023-06-26T10:10:15;30.90;61.90
70706;DHT22;59320;52.316;10.870;2023-06-26T10:12:44;31.00;61.60
70706;DHT22;59320;52.316;10.870;2023-06-26T10:15:12;31.10;63.40
70706;DHT22;59320;52.316;10.870;2023-06-26T10:17:43;31.20;61.60
70706;DHT22;59320;52.316;10.870;2023-06-26T10:20:13;31.40;60.90
70706;DHT22;59320;52.316;10.870;2023-06-26T10:22:44;31.50;61.70
70706;DHT22;59320;52.316;10.870;2023-06-26T10:25:15;31.60;62.50
70706;DHT22;59320;52.316;10.870;2023-06-26T10:27:46;31.50;60.10
70706;DHT22;59320;52.316;10.870;2023-06-26T10:30:19;31.40;62.00
70706;DHT22;59320;52.316;10.870;2023-06-26T10:32:48;31.50;63.30
70706;DHT22;59320;52.316;10.870;2023-06-26T10:35:17;31.60;62.10
70706;DHT22;59320;52.316;10.870;2023-06-26T10:37:46;31.50;61.10
70706;DHT22;59320;52.316;10.870;2023-06-26T10:40:14;31.40;62.30
70706;DHT22;59320;52.316;10.870;2023-06-26T10:42:42;31.40;62.50
70706;DHT22;59320;52.316;10.870;2023-06-26T10:45:13;31.20;62.60
70706;DHT22;59320;52.316;10.870;2023-06-26T10:47:41;30.90;62.60
70706;DHT22;59320;52.316;10.870;2023-06-26T10:50:24;30.90;63.20
70706;DHT22;59320;52.316;10.870;2023-06-26T10:53:08;30.80;64.30
70706;DHT22;59320;52.316;10.870;2023-06-26T10:55:35;30.90;65.20
70706;DHT22;59320;52.316;10.870;2023-06-26T10:58:03;31.10;64.70
70706;DHT22;59320;52.316;10.870;2023-06-26T11:00:30;31.10;63.70
70706;DHT22;59320;52.316;10.870;2023-06-26T11:02:57;31.00;62.90
70706;DHT22;59320;52.316;10.870;2023-06-26T11:05:29;31.00;63.60
70706;DHT22;59320;52.316;10.870;2023-06-26T11:08:03;31.10;64.40
70706;DHT22;59320;52.316;10.870;2023-06-26T11:10:48;31.30;64.00
70706;DHT22;59320;52.316;10.870;2023-06-26T11:13:17;31.50;62.90
70706;DHT22;59320;52.316;10.870;2023-06-26T11:15:44;31.50;62.90
70706;DHT22;59320;52.316;10.870;2023-06-26T11:18:12;31.60;63.00
70706;DHT22;59320;52.316;10.870;2023-06-26T11:20:41;31.70;63.60
70706;DHT22;59320;52.316;10.870;2023-06-26T11:23:08;31.80;63.10
70706;DHT22;59320;52.316;10.870;2023-06-26T11:25:36;31.80;63.90
70706;DHT22;59320;52.316;10.870;2023-06-26T11:28:04;31.80;64.00
70706;DHT22;59320;52.316;10.870;2023-06-26T11:30:32;31.30;62.80
70706;DHT22;59320;52.316;10.870;2023-06-26T11:33:06;30.80;64.70
70706;DHT22;59320;52.316;10.870;2023-06-26T11:35:33;30.50;65.70
70706;DHT22;59320;52.316;10.870;2023-06-26T11:38:03;30.30;65.50
70706;DHT22;59320;52.316;10.870;2023-06-26T11:40:31;29.90;66.50
70706;DHT22;59320;52.316;10.870;2023-06-26T11:42:59;29.70;67.20
70706;DHT22;59320;52.316;10.870;2023-06-26T11:45:28;29.60;67.50
70706;DHT22;59320;52.316;10.870;2023-06-26T11:47:55;29.30;68.30
70706;DHT22;59320;52.316;10.870;2023-06-26T11:50:23;28.90;69.80
70706;DHT22;59320;52.316;10.870;2023-06-26T11:52:54;28.70;71.40
70706;DHT22;59320;52.316;10.870;2023-06-26T11:55:23;28.60;72.20
70706;DHT22;59320;52.316;10.870;2023-06-26T11:57:53;28.70;72.30
70706;DHT22;59320;52.316;10.870;2023-06-26T12:00:21;28.80;72.90
70706;DHT22;59320;52.316;10.870;2023-06-26T12:02:49;28.60;73.70
70706;DHT22;59320;52.316;10.870;2023-06-26T12:05:17;28.20;75.00
70706;DHT22;59320;52.316;10.870;2023-06-26T12:07:47;27.90;75.50
70706;DHT22;59320;52.316;10.870;2023-06-26T12:10:15;27.80;76.00
70706;DHT22;59320;52.316;10.870;2023-06-26T12:12:44;27.90;74.90
70706;DHT22;59320;52.316;10.870;2023-06-26T12:15:13;27.70;75.30
70706;DHT22;59320;52.316;10.870;2023-06-26T12:17:41;27.40;76.50
70706;DHT22;59320;52.316;10.870;2023-06-26T12:20:17;27.50;76.60
70706;DHT22;59320;52.316;10.870;2023-06-26T12:22:46;27.40;76.20
70706;DHT22;59320;52.316;10.870;2023-06-26T12:25:13;27.40;75.60
70706;DHT22;59320;52.316;10.870;2023-06-26T12:27:41;27.20;74.00
70706;DHT22;59320;52.316;10.870;2023-06-26T12:30:10;26.90;74.20
70706;DHT22;59320;52.316;10.870;2023-06-26T12:32:38;26.80;74.40
70706;DHT22;59320;52.316;10.870;2023-06-26T12:35:05;26.90;74.30
70706;DHT22;59320;52.316;10.870;2023-06-26T12:37:37;27.00;74.10
70706;DHT22;59320;52.316;10.870;2023-06-26T12:40:16;26.70;74.70
70706;DHT22;59320;52.316;10.870;2023-06-26T12:42:43;26.40;75.70
70706;DHT22;59320;52.316;10.870;2023-06-26T12:45:13;26.00;77.10
70706;DHT22;59320;52.316;10.870;2023-06-26T12:47:40;25.80;78.30
70706;DHT22;59320;52.316;10.870;2023-06-26T12:50:08;25.60;80.00
70706;DHT22;59320;52.316;10.870;2023-06-26T12:52:35;25.50;80.60
70706;DHT22;59320;52.316;10.870;2023-06-26T12:55:03;25.10;82.20
70706;DHT22;59320;52.316;10.870;2023-06-26T12:57:31;24.80;88.40
70706;DHT22;59320;52.316;10.870;2023-06-26T12:59:58;24.40;91.20
70706;DHT22;59320;52.316;10.870;2023-06-26T13:02:27;23.90;92.30
70706;DHT22;59320;52.316;10.870;2023-06-26T13:04:54;23.80;93.70
70706;DHT22;59320;52.316;10.870;2023-06-26T13:07:21;23.70;94.60
70706;DHT22;59320;52.316;10.870;2023-06-26T13:09:51;23.60;95.00
70706;DHT22;59320;52.316;10.870;2023-06-26T13:12:18;23.70;95.30
70706;DHT22;59320;52.316;10.870;2023-06-26T13:14:45;23.90;95.80
70706;DHT22;59320;52.316;10.870;2023-06-26T13:17:18;24.20;96.00
70706;DHT22;59320;52.316;10.870;2023-06-26T13:19:47;24.30;95.80
70706;DHT22;59320;52.316;10.870;2023-06-26T13:22:14;24.80;96.20
70706;DHT22;59320;52.316;10.870;2023-06-26T13:24:41;25.00;95.10
70706;DHT22;59320;52.316;10.870;2023-06-26T13:27:08;25.20;95.10
70706;DHT22;59320;52.316;10.870;2023-06-26T13:29:35;25.30;94.50
70706;DHT22;59320;52.316;10.870;2023-06-26T13:32:03;25.30;93.60
70706;DHT22;59320;52.316;10.870;2023-06-26T13:34:30;25.20;93.70
70706;DHT22;59320;52.316;10.870;2023-06-26T13:36:59;25.10;93.40
70706;DHT22;59320;52.316;10.870;2023-06-26T13:39:26;24.80;93.20
70706;DHT22;59320;52.316;10.870;2023-06-26T13:41:53;24.70;93.70
70706;DHT22;59320;52.316;10.870;2023-06-26T13:44:20;24.60;93.50
70706;DHT22;59320;52.316;10.870;2023-06-26T13:46:47;24.60;93.40
70706;DHT22;59320;52.316;10.870;2023-06-26T13:49:14;24.50;93.70
70706;DHT22;59320;52.316;10.870;2023-06-26T13:51:41;24.40;93.40
70706;DHT22;59320;52.316;10.870;2023-06-26T13:54:13;24.30;93.90
70706;DHT22;59320;52.316;10.870;2023-06-26T13:56:40;24.10;94.70
70706;DHT22;59320;52.316;10.870;2023-06-26T13:59:07;23.90;93.80
70706;DHT22;59320;52.316;10.870;2023-06-26T14:01:34;23.90;94.60
70706;DHT22;59320;52.316;10.870;2023-06-26T14:04:02;24.20;94.50
70706;DHT22;59320;52.316;10.870;2023-06-26T14:06:29;24.40;93.50
70706;DHT22;59320;52.316;10.870;2023-06-26T14:08:58;24.60;93.00
70706;DHT22;59320;52.316;10.870;2023-06-26T14:11:26;24.90;92.30
70706;DHT22;59320;52.316;10.870;2023-06-26T14:13:56;25.30;91.70
70706;DHT22;59320;52.316;10.870;2023-06-26T14:16:24;25.20;90.90
70706;DHT22;59320;52.316;10.870;2023-06-26T14:18:52;25.20;91.60
70706;DHT22;59320;52.316;10.870;2023-06-26T14:21:19;25.10;90.80
70706;DHT22;59320;52.316;10.870;2023-06-26T14:23:46;25.00;91.00
70706;DHT22;59320;52.316;10.870;2023-06-26T14:26:13;25.00;90.00
70706;DHT22;59320;52.316;10.870;2023-06-26T14:28:41;25.10;89.20
70706;DHT22;59320;52.316;10.870;2023-06-26T14:31:08;25.20;88.20
70706;DHT22;59320;52.316;10.870;2023-06-26T14:33:35;25.20;87.50
70706;DHT22;59320;52.316;10.870;2023-06-26T14:36:03;25.20;87.70
70706;DHT22;59320;52.316;10.870;2023-06-26T14:38:30;25.20;87.40
70706;DHT22;59320;52.316;10.870;2023-06-26T14:40:57;25.20;85.90
70706;DHT22;59320;52.316;10.870;2023-06-26T14:43:24;25.20;85.80
70706;DHT22;59320;52.316;10.870;2023-06-26T14:45:53;25.30;85.80
70706;DHT22;59320;52.316;10.870;2023-06-26T14:48:20;25.60;86.40
70706;DHT22;59320;52.316;10.870;2023-06-26T14:50:47;25.70;85.30
70706;DHT22;59320;52.316;10.870;2023-06-26T14:53:14;25.90;84.50
70706;DHT22;59320;52.316;10.870;2023-06-26T14:55:41;26.00;84.10
70706;DHT22;59320;52.316;10.870;2023-06-26T14:58:08;25.90;83.30
70706;DHT22;59320;52.316;10.870;2023-06-26T15:00:36;26.10;84.00
70706;DHT22;59320;52.316;10.870;2023-06-26T15:03:04;26.70;83.30
70706;DHT22;59320;52.316;10.870;2023-06-26T15:05:31;27.00;82.10
70706;DHT22;59320;52.316;10.870;2023-06-26T15:07:58;27.10;81.00
70706;DHT22;59320;52.316;10.870;2023-06-26T15:10:25;27.20;78.80
70706;DHT22;59320;52.316;10.870;2023-06-26T15:12:52;27.10;79.30
70706;DHT22;59320;52.316;10.870;2023-06-26T15:15:20;27.10;79.20
70706;DHT22;59320;52.316;10.870;2023-06-26T15:17:48;27.00;77.40
70706;DHT22;59320;52.316;10.870;2023-06-26T15:20:16;26.60;77.20